Time;durP1;ratioP1;P1;durP2;ratioP2;P2;SDS_P1;SDS_P2;PMS_P1;PMS_P2;Temp;Humidity;BMP_temperature;BMP_pressure;BME280_temperature;BME280_humidity;BME280_pressure;Samples;Min_cycle;Max_cycle;Signal;HPM_P1;HPM_P2
2023/12/05 00:00:16;;;;;;;1999.90;999.90;;;1.10;99.90;;;;;;5074828;28;20033;-74
2023/12/05 00:02:42;;;;;;;1999.90;999.90;;;1.10;99.90;;;;;;5072793;28;20036;-75
2023/12/05 00:05:07;;;;;;;1999.90;999.90;;;1.20;99.90;;;;;;5074485;28;20040;-75
2023/12/05 00:07:34;;;;;;;1999.90;999.90;;;1.10;99.90;;;;;;5072873;28;20041;-75
2023/12/05 00:09:59;;;;;;;1999.90;999.90;;;1.20;99.90;;;;;;5074716;28;20108;-75
2023/12/05 00:12:26;;;;;;;1999.90;999.90;;;1.10;99.90;;;;;;5074444;28;20041;-75
2023/12/05 00:14:52;;;;;;;1999.90;999.90;;;1.20;99.90;;;;;;5074690;28;20033;-74
2023/12/05 00:17:17;;;;;;;1999.90;999.90;;;1.20;99.90;;;;;;5074421;28;20048;-74
2023/12/05 00:19:43;;;;;;;1999.90;999.90;;;1.20;99.90;;;;;;5074500;28;20041;-74
2023/12/05 00:22:08;;;;;;;1999.90;999.90;;;1.20;99.90;;;;;;5074210;28;20029;-74
2023/12/05 00:24:34;;;;;;;1999.90;999.90;;;1.20;99.90;;;;;;5074611;28;20033;-74
2023/12/05 00:27:00;;;;;;;1999.90;999.90;;;1.20;99.90;;;;;;5072642;28;20079;-75
2023/12/05 00:29:25;;;;;;;1999.90;999.90;;;1.30;99.90;;;;;;5074528;28;20160;-75
2023/12/05 00:31:52;;;;;;;1999.90;999.90;;;1.30;99.90;;;;;;5074166;28;20029;-75
2023/12/05 00:34:18;;;;;;;1999.90;999.90;;;1.30;99.90;;;;;;5074306;28;20031;-75
2023/12/05 00:36:44;;;;;;;1999.90;999.90;;;1.50;99.90;;;;;;5074075;28;20496;-75
2023/12/05 00:39:09;;;;;;;1999.90;999.90;;;1.70;99.90;;;;;;5074298;28;20041;-74
2023/12/05 00:41:35;;;;;;;1999.90;999.90;;;1.90;99.90;;;;;;5072740;28;20033;-74
2023/12/05 00:44:00;;;;;;;1999.90;999.90;;;2.00;99.90;;;;;;5074035;28;20108;-74
2023/12/05 00:46:27;;;;;;;1999.90;999.90;;;2.10;99.90;;;;;;5072365;28;20041;-74
2023/12/05 00:48:53;;;;;;;1999.90;999.90;;;2.20;99.90;;;;;;5074037;28;20479;-74
2023/12/05 00:51:18;;;;;;;1999.90;999.90;;;2.30;99.90;;;;;;5074216;28;20083;-74
2023/12/05 00:53:44;;;;;;;1999.90;999.90;;;2.40;99.90;;;;;;5073661;28;20037;-74
2023/12/05 00:56:14;;;;;;;1999.90;999.90;;;2.50;99.90;;;;;;5072410;28;20479;-74
2023/12/05 00:58:40;;;;;;;1999.90;999.90;;;2.50;99.90;;;;;;5074081;28;20033;-74
2023/12/05 01:01:07;;;;;;;1999.90;999.90;;;2.50;99.90;;;;;;5073835;28;20037;-74
2023/12/05 01:03:32;;;;;;;1999.90;999.90;;;2.60;99.90;;;;;;5072327;28;20036;-74
2023/12/05 01:05:58;;;;;;;1999.90;999.90;;;2.60;99.90;;;;;;5072205;28;20138;-75
2023/12/05 01:08:23;;;;;;;1999.90;999.90;;;2.60;99.90;;;;;;5072163;28;20406;-74
2023/12/05 01:10:49;;;;;;;1999.90;999.90;;;2.70;99.90;;;;;;5075258;28;20390;-74
2023/12/05 01:13:14;;;;;;;1999.90;999.90;;;2.70;99.90;;;;;;5075647;28;20115;-74
2023/12/05 01:15:40;;;;;;;1999.90;999.90;;;2.80;99.90;;;;;;5076866;28;20025;-74
2023/12/05 01:18:05;;;;;;;1999.90;999.90;;;2.70;99.90;;;;;;5076922;28;20491;-75
2023/12/05 01:20:31;;;;;;;1999.90;999.90;;;2.80;99.90;;;;;;5077265;28;20033;-74
2023/12/05 01:22:57;;;;;;;1999.90;999.90;;;2.80;99.90;;;;;;5076976;28;20037;-75
2023/12/05 01:25:22;;;;;;;1999.90;999.90;;;2.90;99.90;;;;;;5077187;28;20025;-75
2023/12/05 01:27:48;;;;;;;1999.90;999.90;;;2.90;99.90;;;;;;5076597;28;20041;-74
2023/12/05 01:30:13;;;;;;;1999.90;999.90;;;3.00;99.90;;;;;;5077134;28;20111;-74
2023/12/05 01:32:39;;;;;;;1999.90;999.90;;;3.00;99.90;;;;;;5076758;28;20120;-75
2023/12/05 01:35:05;;;;;;;1999.90;999.90;;;3.00;99.90;;;;;;5077079;28;20033;-74
2023/12/05 01:37:31;;;;;;;1999.90;999.90;;;3.10;99.90;;;;;;5076762;28;20825;-74
2023/12/05 01:39:56;;;;;;;1999.90;999.90;;;3.10;99.90;;;;;;5075442;28;20116;-74
2023/12/05 01:42:22;;;;;;;1999.90;999.90;;;3.20;99.90;;;;;;5076768;28;20060;-74
2023/12/05 01:44:47;;;;;;;1999.90;999.90;;;3.10;99.90;;;;;;5077018;28;20482;-74
2023/12/05 01:47:13;;;;;;;1999.90;999.90;;;3.20;99.90;;;;;;5076199;28;20072;-74
2023/12/05 01:49:41;;;;;;;1999.90;999.90;;;3.20;99.90;;;;;;5076832;28;20052;-75
2023/12/05 01:52:07;;;;;;;1999.90;999.90;;;3.20;99.90;;;;;;5076202;28;20033;-74
2023/12/05 01:54:33;;;;;;;1999.90;999.90;;;3.10;99.90;;;;;;5076924;28;20029;-74
2023/12/05 01:57:00;;;;;;;1999.90;999.90;;;3.10;99.90;;;;;;5076504;28;20033;-75
2023/12/05 01:59:26;;;;;;;1999.90;999.90;;;3.10;99.90;;;;;;5076435;28;20064;-75
2023/12/05 02:01:52;;;;;;;1999.90;999.90;;;3.10;99.90;;;;;;5076671;28;20029;-75
2023/12/05 02:04:18;;;;;;;1999.90;999.90;;;3.30;99.90;;;;;;5075377;28;20076;-75
2023/12/05 02:06:46;;;;;;;1999.90;999.90;;;3.20;99.90;;;;;;5075659;28;20045;-75
2023/12/05 02:09:13;;;;;;;1999.90;999.90;;;3.30;99.90;;;;;;5074954;28;20473;-74
2023/12/05 02:11:41;;;;;;;1999.90;999.90;;;3.30;99.90;;;;;;5076406;28;20029;-74
2023/12/05 02:14:07;;;;;;;1999.90;999.90;;;3.30;99.90;;;;;;5076245;28;20036;-74
2023/12/05 02:16:42;;;;;;;1999.90;999.90;;;3.30;99.90;;;;;;5076171;28;20082;-75
2023/12/05 02:19:45;;;;;;;1999.90;999.90;;;3.30;99.90;;;;;;5076554;28;20029;-75
2023/12/05 02:22:43;;;;;;;1999.90;999.90;;;3.20;99.90;;;;;;5076084;28;20098;-75
2023/12/05 02:25:16;;;;;;;1999.90;999.90;;;3.30;99.90;;;;;;5072758;28;20044;-75
2023/12/05 02:27:42;;;;;;;1999.90;999.90;;;3.40;99.90;;;;;;5075760;28;20121;-75
2023/12/05 02:30:14;;;;;;;1999.90;999.90;;;3.30;99.90;;;;;;5076145;28;20585;-74
2023/12/05 02:32:39;;;;;;;1999.90;999.90;;;3.30;99.90;;;;;;5075836;28;20119;-75
2023/12/05 02:35:06;;;;;;;1999.90;999.90;;;3.30;99.90;;;;;;5075852;28;20446;-75
2023/12/05 02:37:40;;;;;;;1999.90;999.90;;;3.40;99.90;;;;;;5075384;28;20127;-75
2023/12/05 02:40:10;;;;;;;1999.90;999.90;;;3.40;99.90;;;;;;5075640;28;20037;-74
2023/12/05 02:42:38;;;;;;;1999.90;999.90;;;3.40;99.90;;;;;;5075683;28;20496;-74
2023/12/05 02:45:07;;;;;;;1999.90;999.90;;;3.40;99.90;;;;;;5075835;28;20520;-74
2023/12/05 02:47:34;;;;;;;1999.90;999.90;;;3.50;99.90;;;;;;5075226;28;20771;-74
2023/12/05 02:49:59;;;;;;;1999.90;999.90;;;3.50;99.90;;;;;;5075705;28;20028;-74
2023/12/05 02:52:25;;;;;;;1999.90;999.90;;;3.50;99.90;;;;;;5075550;28;20498;-75
2023/12/05 02:54:50;;;;;;;1999.90;999.90;;;3.40;99.90;;;;;;5075872;28;20029;-74
2023/12/05 02:57:16;;;;;;;1999.90;999.90;;;3.50;99.90;;;;;;5075526;28;20052;-74
2023/12/05 02:59:42;;;;;;;1999.90;999.90;;;3.50;99.90;;;;;;5075798;28;20387;-74
2023/12/05 03:02:07;;;;;;;1999.90;999.90;;;3.50;99.90;;;;;;5075221;28;20044;-74
2023/12/05 03:04:33;;;;;;;1999.90;999.90;;;3.60;99.90;;;;;;5075527;28;20029;-74
2023/12/05 03:06:58;;;;;;;1999.90;999.90;;;3.70;99.90;;;;;;5073841;28;20094;-74
2023/12/05 03:09:24;;;;;;;1999.90;999.90;;;3.70;99.90;;;;;;5075775;28;20061;-74
2023/12/05 03:11:49;;;;;;;1999.90;999.90;;;3.70;99.90;;;;;;5075462;28;20037;-74
2023/12/05 03:14:15;;;;;;;1999.90;999.90;;;3.70;99.90;;;;;;5075694;28;20037;-74
2023/12/05 03:16:42;;;;;;;1999.90;999.90;;;3.70;99.90;;;;;;5073685;28;20037;-74
2023/12/05 03:19:08;;;;;;;1999.90;999.90;;;3.70;99.90;;;;;;5074967;28;20033;-74
2023/12/05 03:21:33;;;;;;;1999.90;999.90;;;3.80;99.90;;;;;;5075256;28;20036;-75
2023/12/05 03:23:59;;;;;;;1999.90;999.90;;;3.80;99.90;;;;;;5074881;28;20041;-74
2023/12/05 03:26:24;;;;;;;1999.90;999.90;;;3.90;99.90;;;;;;5073273;28;20037;-74
2023/12/05 03:28:51;;;;;;;1999.90;999.90;;;3.90;99.90;;;;;;5075504;28;20040;-74
2023/12/05 03:31:17;;;;;;;1999.90;999.90;;;3.80;99.90;;;;;;5075169;28;20079;-75
2023/12/05 03:33:43;;;;;;;1999.90;999.90;;;3.70;99.90;;;;;;5074570;28;20083;-75
2023/12/05 03:36:09;;;;;;;1999.90;999.90;;;3.60;99.90;;;;;;5074972;28;20037;-75
2023/12/05 03:38:38;;;;;;;1999.90;999.90;;;3.50;99.90;;;;;;5074837;28;20047;-75
2023/12/05 03:41:04;;;;;;;1999.90;999.90;;;3.60;99.90;;;;;;5075122;28;20039;-74
2023/12/05 03:43:29;;;;;;;1999.90;999.90;;;3.50;99.90;;;;;;5073465;28;20094;-74
2023/12/05 03:45:55;;;;;;;1999.90;999.90;;;3.40;99.90;;;;;;5074866;28;20044;-74
2023/12/05 03:48:20;;;;;;;1999.90;999.90;;;3.40;99.90;;;;;;5075016;28;20048;-75
2023/12/05 03:50:46;;;;;;;1999.90;999.90;;;3.40;99.90;;;;;;5075063;28;20493;-75
2023/12/05 03:53:11;;;;;;;1999.90;999.90;;;3.50;99.90;;;;;;5074563;28;20041;-75
2023/12/05 03:55:37;;;;;;;1999.90;999.90;;;3.50;99.90;;;;;;5074981;28;20065;-75
2023/12/05 03:58:03;;;;;;;1999.90;999.90;;;3.50;99.90;;;;;;5074776;28;20048;-75
2023/12/05 04:00:28;;;;;;;1999.90;999.90;;;3.50;99.90;;;;;;5074840;28;20033;-75
2023/12/05 04:02:55;;;;;;;1999.90;999.90;;;3.50;99.90;;;;;;5074950;28;20029;-75
2023/12/05 04:05:20;;;;;;;1999.90;999.90;;;3.60;99.90;;;;;;5074782;28;20146;-75
2023/12/05 04:07:46;;;;;;;1999.90;999.90;;;3.70;99.90;;;;;;5074117;28;20196;-75
2023/12/05 04:10:12;;;;;;;1999.90;999.90;;;3.70;99.90;;;;;;5073041;28;20052;-75
2023/12/05 04:12:40;;;;;;;1999.90;999.90;;;3.70;99.90;;;;;;5074788;28;20850;-75
2023/12/05 04:15:06;;;;;;;1999.90;999.90;;;3.80;99.90;;;;;;5074618;28;20032;-75
2023/12/05 04:17:32;;;;;;;1999.90;999.90;;;3.80;99.90;;;;;;5074318;28;20037;-75
2023/12/05 04:19:58;;;;;;;1999.90;999.90;;;3.80;99.90;;;;;;5074715;28;20103;-75
2023/12/05 04:22:23;;;;;;;1999.90;999.90;;;3.90;99.90;;;;;;5074495;28;20064;-75
2023/12/05 04:24:49;;;;;;;1999.90;999.90;;;3.90;99.90;;;;;;5074563;28;20040;-75
2023/12/05 04:27:14;;;;;;;1999.90;999.90;;;3.90;99.90;;;;;;5074285;28;20041;-75
2023/12/05 04:29:42;;;;;;;1999.90;999.90;;;4.00;99.90;;;;;;5074614;28;20037;-75
2023/12/05 04:32:08;;;;;;;1999.90;999.90;;;4.00;99.90;;;;;;5074249;28;20219;-75
2023/12/05 04:34:35;;;;;;;1999.90;999.90;;;4.00;99.90;;;;;;5074419;28;20029;-75
2023/12/05 04:37:00;;;;;;;1999.90;999.90;;;4.00;99.90;;;;;;5072667;28;20413;-75
2023/12/05 04:39:26;;;;;;;1999.90;999.90;;;4.00;99.90;;;;;;5074489;28;20037;-75
2023/12/05 04:41:51;;;;;;;1999.90;999.90;;;4.00;99.90;;;;;;5074189;28;20391;-74
2023/12/05 04:44:17;;;;;;;1999.90;999.90;;;4.00;99.90;;;;;;5074313;28;20487;-74
2023/12/05 04:46:42;;;;;;;1999.90;999.90;;;4.10;99.90;;;;;;5076890;28;20036;-75
2023/12/05 04:49:08;;;;;;;1999.90;999.90;;;4.10;99.90;;;;;;5077829;28;20108;-75
2023/12/05 04:51:34;;;;;;;1999.90;999.90;;;4.10;99.90;;;;;;5077746;28;20041;-75
2023/12/05 04:54:00;;;;;;;1999.90;999.90;;;4.10;99.90;;;;;;5077143;28;20044;-75
2023/12/05 04:56:26;;;;;;;1999.90;999.90;;;4.30;99.90;;;;;;5077390;28;20086;-75
2023/12/05 04:58:52;;;;;;;1999.90;999.90;;;4.30;99.90;;;;;;5077315;28;20064;-75
2023/12/05 05:01:17;;;;;;;1999.90;999.90;;;4.30;99.90;;;;;;5077694;28;20126;-75
2023/12/05 05:03:43;;;;;;;1999.90;999.90;;;4.20;99.90;;;;;;5077329;28;20029;-74
2023/12/05 05:06:09;;;;;;;1999.90;999.90;;;4.20;99.90;;;;;;5077229;28;20444;-75
2023/12/05 05:08:34;;;;;;;1999.90;999.90;;;4.30;99.90;;;;;;5077456;28;20037;-75
2023/12/05 05:11:00;;;;;;;1999.90;999.90;;;4.30;99.90;;;;;;5077513;28;20024;-75
2023/12/05 05:13:25;;;;;;;1999.90;999.90;;;4.20;99.90;;;;;;5076866;28;20044;-75
2023/12/05 05:15:51;;;;;;;1999.90;999.90;;;4.20;99.90;;;;;;5077140;28;20033;-75
2023/12/05 05:18:16;;;;;;;1999.90;999.90;;;4.20;99.90;;;;;;5077187;28;20108;-74
2023/12/05 05:20:42;;;;;;;1999.90;999.90;;;4.30;99.90;;;;;;5077381;28;20068;-75
2023/12/05 05:23:09;;;;;;;1999.90;999.90;;;4.20;99.90;;;;;;5075603;28;20520;-75
2023/12/05 05:25:35;;;;;;;1999.90;999.90;;;4.30;99.90;;;;;;5077161;28;20422;-75
2023/12/05 05:28:01;;;;;;;1999.90;999.90;;;4.30;99.90;;;;;;5076773;28;20037;-75
2023/12/05 05:30:27;;;;;;;1999.90;999.90;;;4.20;99.90;;;;;;5077029;28;20033;-75
2023/12/05 05:32:52;;;;;;;1999.90;999.90;;;4.10;99.90;;;;;;5076729;28;20033;-75
2023/12/05 05:35:18;;;;;;;1999.90;999.90;;;4.10;99.90;;;;;;5077039;28;20056;-74
2023/12/05 05:37:43;;;;;;;1999.90;999.90;;;4.10;99.90;;;;;;5076769;28;20390;-75
2023/12/05 05:40:09;;;;;;;1999.90;999.90;;;4.10;99.90;;;;;;5077046;28;20108;-75
2023/12/05 05:42:35;;;;;;;1999.90;999.90;;;4.00;99.90;;;;;;5074803;28;20076;-74
2023/12/05 05:45:00;;;;;;;1999.90;999.90;;;4.00;99.90;;;;;;5075341;28;20057;-75
2023/12/05 05:47:26;;;;;;;1999.90;999.90;;;4.10;99.90;;;;;;5075224;28;20088;-75
2023/12/05 05:49:52;;;;;;;1999.90;999.90;;;4.10;99.90;;;;;;5075681;28;20029;-75
2023/12/05 05:52:17;;;;;;;1999.90;999.90;;;4.10;99.90;;;;;;5076785;28;20036;-75
2023/12/05 05:54:43;;;;;;;1999.90;999.90;;;4.10;99.90;;;;;;5076791;28;20119;-75
2023/12/05 05:57:08;;;;;;;1999.90;999.90;;;4.10;99.90;;;;;;5075868;28;20422;-75
2023/12/05 05:59:34;;;;;;;1999.90;999.90;;;4.10;99.90;;;;;;5076671;28;20029;-75
2023/12/05 06:01:59;;;;;;;1999.90;999.90;;;4.10;99.90;;;;;;5076220;28;20048;-75
2023/12/05 06:04:25;;;;;;;1999.90;999.90;;;4.10;99.90;;;;;;5076408;28;20079;-74
2023/12/05 06:06:50;;;;;;;1999.90;999.90;;;4.00;99.90;;;;;;5076250;28;20045;-75
2023/12/05 06:09:16;;;;;;;1999.90;999.90;;;4.00;99.90;;;;;;5076613;28;20039;-75
2023/12/05 06:11:42;;;;;;;1999.90;999.90;;;4.00;99.90;;;;;;5076395;28;20110;-75
2023/12/05 06:14:08;;;;;;;1999.90;999.90;;;4.10;99.90;;;;;;5076575;28;20029;-75
2023/12/05 06:16:34;;;;;;;1999.90;999.90;;;4.10;99.90;;;;;;5076250;28;20446;-75
2023/12/05 06:18:59;;;;;;;1999.90;999.90;;;4.20;99.90;;;;;;5076325;28;20029;-75
2023/12/05 06:21:25;;;;;;;1999.90;999.90;;;4.20;99.90;;;;;;5076279;28;20447;-75
2023/12/05 06:23:53;;;;;;;1999.90;999.90;;;4.30;99.90;;;;;;5074481;28;20025;-75
2023/12/05 06:26:19;;;;;;;1999.90;999.90;;;4.30;99.90;;;;;;5074421;28;20037;-75
2023/12/05 06:28:44;;;;;;;1999.90;999.90;;;4.30;99.90;;;;;;5076306;28;20033;-75
2023/12/05 06:31:10;;;;;;;1999.90;999.90;;;4.20;99.90;;;;;;5076099;28;20037;-75
2023/12/05 06:33:35;;;;;;;1999.90;999.90;;;4.30;99.90;;;;;;5074347;28;20033;-76
2023/12/05 06:36:01;;;;;;;1999.90;999.90;;;4.30;99.90;;;;;;5075892;28;20036;-75
2023/12/05 06:38:26;;;;;;;1999.90;999.90;;;4.30;99.90;;;;;;5076195;28;20040;-76
2023/12/05 06:40:52;;;;;;;1999.90;999.90;;;4.40;99.90;;;;;;5075903;28;20380;-75
2023/12/05 06:43:17;;;;;;;1999.90;999.90;;;4.30;99.90;;;;;;5075334;28;20548;-75
2023/12/05 06:45:43;;;;;;;1999.90;999.90;;;4.30;99.90;;;;;;5075913;28;20032;-76
2023/12/05 06:48:08;;;;;;;1999.90;999.90;;;4.30;99.90;;;;;;5076223;28;20072;-77
2023/12/05 06:50:34;;;;;;;1999.90;999.90;;;4.30;99.90;;;;;;5076022;28;20033;-77
2023/12/05 06:53:01;;;;;;;1999.90;999.90;;;4.30;99.90;;;;;;5074898;28;20413;-75
2023/12/05 06:55:27;;;;;;;1999.90;999.90;;;4.30;99.90;;;;;;5076370;28;20039;-74
2023/12/05 06:57:52;;;;;;;1999.90;999.90;;;4.40;99.90;;;;;;5074213;28;20029;-74
2023/12/05 07:00:18;;;;;;;1999.90;999.90;;;4.40;99.90;;;;;;5075560;28;20036;-78
2023/12/05 07:02:44;;;;;;;1999.90;999.90;;;4.40;99.90;;;;;;5073765;28;20044;-75
2023/12/05 07:05:10;;;;;;;1999.90;999.90;;;4.40;99.90;;;;;;5075465;28;20036;-73
2023/12/05 07:07:35;;;;;;;1999.90;999.90;;;4.40;99.90;;;;;;5074637;28;20045;-74
2023/12/05 07:10:02;;;;;;;1999.90;999.90;;;4.50;99.90;;;;;;5075593;28;20025;-74
2023/12/05 07:12:28;;;;;;;1999.90;999.90;;;4.40;99.90;;;;;;5075338;28;20482;-73
2023/12/05 07:14:53;;;;;;;1999.90;999.90;;;4.50;99.90;;;;;;5075473;28;20033;-74
2023/12/05 07:17:19;;;;;;;1999.90;999.90;;;4.50;99.90;;;;;;5074841;28;20368;-73
2023/12/05 07:19:45;;;;;;;1999.90;999.90;;;4.60;99.90;;;;;;5074070;28;20087;-74
2023/12/05 07:22:11;;;;;;;1999.90;999.90;;;4.60;99.90;;;;;;5075262;28;20040;-74
2023/12/05 07:24:37;;;;;;;1999.90;999.90;;;4.60;99.90;;;;;;5075484;28;20020;-75
2023/12/05 07:27:03;;;;;;;1999.90;999.90;;;4.60;99.90;;;;;;5076067;28;20430;-75
2023/12/05 07:29:28;;;;;;;1999.90;999.90;;;4.70;99.90;;;;;;5075157;28;20040;-74
2023/12/05 07:31:54;;;;;;;1999.90;999.90;;;4.80;99.90;;;;;;5075415;28;20095;-75
2023/12/05 07:34:20;;;;;;;1999.90;999.90;;;4.70;99.90;;;;;;5073809;28;20394;-77
2023/12/05 07:36:45;;;;;;;1999.90;999.90;;;4.80;99.90;;;;;;5074986;28;20087;-75
2023/12/05 07:39:12;;;;;;;1999.90;999.90;;;4.80;99.90;;;;;;5075700;28;20399;-75
2023/12/05 07:41:39;;;;;;;1999.90;999.90;;;4.80;99.90;;;;;;5075501;28;20029;-75
2023/12/05 07:44:06;;;;;;;1999.90;999.90;;;4.70;99.90;;;;;;5076226;28;20505;-75
2023/12/05 07:46:32;;;;;;;1999.90;999.90;;;4.70;99.90;;;;;;5073911;28;20123;-74
2023/12/05 07:48:58;;;;;;;1999.90;999.90;;;4.70;99.90;;;;;;5067737;28;20041;-75
2023/12/05 07:51:23;;;;;;;1999.90;999.90;;;4.80;99.90;;;;;;5074233;28;20029;-76
2023/12/05 07:53:53;;;;;;;1999.90;999.90;;;4.80;99.90;;;;;;5072592;28;20491;-74
2023/12/05 07:56:18;;;;;;;1999.90;999.90;;;4.90;99.90;;;;;;5070838;28;20032;-73
2023/12/05 07:58:44;;;;;;;1999.90;999.90;;;4.90;99.90;;;;;;5068699;28;20407;-78
2023/12/05 08:01:10;;;;;;;1999.90;999.90;;;5.00;99.90;;;;;;5074111;28;20070;-74
2023/12/05 08:03:36;;;;;;;1999.90;999.90;;;5.00;99.90;;;;;;5074075;28;20036;-74
2023/12/05 08:06:02;;;;;;;1999.90;999.90;;;5.00;99.90;;;;;;5074341;28;20044;-75
2023/12/05 08:08:30;;;;;;;1999.90;999.90;;;5.10;99.90;;;;;;5074753;28;20076;-74
2023/12/05 08:10:59;;;;;;;1999.90;999.90;;;5.20;99.90;;;;;;5072806;28;20056;-75
2023/12/05 08:13:25;;;;;;;1999.90;999.90;;;5.20;99.90;;;;;;5074355;28;20033;-75
2023/12/05 08:15:51;;;;;;;1999.90;999.90;;;5.10;99.90;;;;;;5073933;28;20029;-75
2023/12/05 08:18:17;;;;;;;1999.90;999.90;;;5.10;99.90;;;;;;5074426;28;20072;-75
2023/12/05 08:20:42;;;;;;;1999.90;999.90;;;5.20;99.90;;;;;;5077564;28;20033;-75
2023/12/05 08:23:09;;;;;;;1999.90;999.90;;;5.30;99.90;;;;;;5077834;28;20048;-75
2023/12/05 08:25:34;;;;;;;1999.90;999.90;;;5.30;99.90;;;;;;5078374;28;20461;-75
2023/12/05 08:28:00;;;;;;;1999.90;999.90;;;5.30;99.90;;;;;;5077461;28;20041;-75
2023/12/05 08:30:25;;;;;;;1999.90;999.90;;;5.40;99.90;;;;;;5078761;28;20021;-75
2023/12/05 08:32:51;;;;;;;1999.90;999.90;;;5.40;99.90;;;;;;5078082;28;20379;-75
2023/12/05 08:35:16;;;;;;;1999.90;999.90;;;5.50;99.90;;;;;;5078167;28;20111;-75
2023/12/05 08:37:42;;;;;;;1999.90;999.90;;;5.40;99.90;;;;;;5076412;28;20445;-75
2023/12/05 08:40:08;;;;;;;1999.90;999.90;;;5.40;99.90;;;;;;5076252;28;20029;-75
2023/12/05 08:42:34;;;;;;;1999.90;999.90;;;5.50;99.90;;;;;;5075851;28;20083;-75
2023/12/05 08:45:00;;;;;;;1999.90;999.90;;;5.40;99.90;;;;;;5077283;28;20399;-75
2023/12/05 08:47:26;;;;;;;1999.90;999.90;;;5.40;99.90;;;;;;5077154;28;20041;-75
2023/12/05 08:49:51;;;;;;;1999.90;999.90;;;5.40;99.90;;;;;;5075869;28;20164;-75
2023/12/05 08:52:18;;;;;;;1999.90;999.90;;;5.40;99.90;;;;;;5077016;28;20090;-75
2023/12/05 08:54:44;;;;;;;1999.90;999.90;;;5.40;99.90;;;;;;5077436;28;20029;-75
2023/12/05 08:57:10;;;;;;;1999.90;999.90;;;5.40;99.90;;;;;;5076871;28;20048;-75
2023/12/05 08:59:35;;;;;;;1999.90;999.90;;;5.40;99.90;;;;;;5077458;28;20029;-75
2023/12/05 09:02:01;;;;;;;1999.90;999.90;;;5.40;99.90;;;;;;5077426;28;20410;-75
2023/12/05 09:04:27;;;;;;;1999.90;999.90;;;5.40;99.90;;;;;;5075859;28;20061;-75
2023/12/05 09:06:52;;;;;;;1999.90;999.90;;;5.40;99.90;;;;;;5077167;28;20048;-75
2023/12/05 09:09:18;;;;;;;1999.90;999.90;;;5.40;99.90;;;;;;5077094;28;20029;-75
2023/12/05 09:11:45;;;;;;;1999.90;999.90;;;5.50;99.90;;;;;;5077069;28;20055;-75
2023/12/05 09:14:10;;;;;;;1999.90;999.90;;;5.60;99.90;;;;;;5078125;28;20029;-75
2023/12/05 09:16:36;;;;;;;1999.90;999.90;;;5.60;99.90;;;;;;5077505;28;20398;-75
2023/12/05 09:19:01;;;;;;;1999.90;999.90;;;5.70;99.90;;;;;;5077265;28;20510;-75
2023/12/05 09:21:27;;;;;;;1999.90;999.90;;;5.80;99.90;;;;;;5077134;28;20024;-75
2023/12/05 09:23:52;;;;;;;1999.90;999.90;;;5.90;99.90;;;;;;5076542;28;20105;-75
2023/12/05 09:26:18;;;;;;;1999.90;999.90;;;6.00;99.90;;;;;;5074797;28;20048;-77
2023/12/05 09:28:44;;;;;;;1999.90;999.90;;;6.10;99.90;;;;;;5077004;28;20045;-77
2023/12/05 09:31:10;;;;;;;1999.90;999.90;;;6.30;99.90;;;;;;5074742;28;20029;-77
2023/12/05 09:33:36;;;;;;;1999.90;999.90;;;6.40;99.90;;;;;;5076815;28;20039;-76
2023/12/05 09:36:03;;;;;;;1999.90;999.90;;;6.60;99.90;;;;;;5076731;28;20069;-76
2023/12/05 09:38:28;;;;;;;1999.90;999.90;;;6.60;99.90;;;;;;5076742;28;20502;-77
2023/12/05 09:40:56;;;;;;;1999.90;999.90;;;6.50;99.90;;;;;;5076533;28;20035;-77
2023/12/05 09:43:23;;;;;;;1999.90;999.90;;;6.50;99.90;;;;;;5076432;28;20116;-77
2023/12/05 09:45:58;;;;;;;1999.90;999.90;;;6.50;99.90;;;;;;5076326;28;20037;-77
2023/12/05 09:48:27;;;;;;;1999.90;999.90;;;6.60;99.90;;;;;;5076698;28;20033;-75
2023/12/05 09:50:53;;;;;;;1999.90;999.90;;;6.70;99.90;;;;;;5074905;28;20055;-75
2023/12/05 09:53:18;;;;;;;1999.90;999.90;;;6.60;99.90;;;;;;5075975;28;20121;-75
2023/12/05 09:55:45;;;;;;;1999.90;999.90;;;6.60;99.90;;;;;;5076223;28;20131;-76
2023/12/05 09:58:12;;;;;;;1999.90;999.90;;;6.50;99.90;;;;;;5076613;28;20044;-76
2023/12/05 10:00:38;;;;;;;1999.90;999.90;;;6.40;99.90;;;;;;5076708;28;20028;-76
2023/12/05 10:03:08;;;;;;;1999.90;999.90;;;6.40;99.90;;;;;;5076615;28;20033;-76
2023/12/05 10:05:35;;;;;;;1999.90;999.90;;;6.40;99.90;;;;;;5075005;28;20036;-76
2023/12/05 10:08:02;;;;;;;1999.90;999.90;;;6.40;99.90;;;;;;5076080;28;20039;-76
2023/12/05 10:10:30;;;;;;;1999.90;999.90;;;6.50;99.90;;;;;;5075007;28;20470;-76
2023/12/05 10:12:56;;;;;;;1999.90;999.90;;;6.60;99.90;;;;;;5076324;28;20029;-76
2023/12/05 10:15:23;;;;;;;1999.90;999.90;;;6.60;99.90;;;;;;5076316;28;20128;-76
2023/12/05 10:17:49;;;;;;;1999.90;999.90;;;6.60;99.90;;;;;;5074580;28;20044;-76
2023/12/05 10:20:14;;;;;;;1999.90;999.90;;;6.60;99.90;;;;;;5076227;28;20089;-76
2023/12/05 10:22:40;;;;;;;1999.90;999.90;;;6.60;99.90;;;;;;5075695;28;20030;-76
2023/12/05 10:25:07;;;;;;;1999.90;999.90;;;6.60;99.90;;;;;;5075779;28;20029;-76
2023/12/05 10:27:32;;;;;;;1999.90;999.90;;;6.60;99.90;;;;;;5075587;28;20041;-76
2023/12/05 10:29:58;;;;;;;1999.90;999.90;;;6.60;99.90;;;;;;5074438;28;20459;-76
2023/12/05 10:32:27;;;;;;;1999.90;999.90;;;6.80;99.90;;;;;;5075784;28;20434;-76
2023/12/05 10:34:56;;;;;;;1999.90;999.90;;;7.00;99.90;;;;;;5075855;28;20076;-76
2023/12/05 10:37:22;;;;;;;1999.90;999.90;;;7.20;99.90;;;;;;5074160;28;20040;-76
2023/12/05 10:39:56;;;;;;;1999.90;999.90;;;7.30;99.90;;;;;;5075926;28;20111;-76
2023/12/05 10:42:28;;;;;;;1999.90;999.90;;;7.30;99.90;;;;;;5075311;28;20033;-76
2023/12/05 10:44:54;;;;;;;1999.90;999.90;;;7.40;99.90;;;;;;5075779;28;20033;-76
2023/12/05 10:47:19;;;;;;;1999.90;999.90;;;7.40;99.90;;;;;;5075213;28;20359;-73
2023/12/05 10:49:45;;;;;;;1999.90;999.90;;;7.40;99.90;;;;;;5075753;28;20230;-74
2023/12/05 10:52:14;;;;;;;1999.90;999.90;;;7.40;99.90;;;;;;5075388;28;20047;-73
2023/12/05 10:54:40;;;;;;;1999.90;999.90;;;7.40;99.90;;;;;;5075551;28;20112;-76
2023/12/05 10:57:09;;;;;;;1999.90;999.90;;;7.30;99.90;;;;;;5075327;28;20537;-76
2023/12/05 10:59:36;;;;;;;1999.90;999.90;;;7.30;99.90;;;;;;5075003;28;20033;-76
2023/12/05 11:02:13;;;;;;;1999.90;999.90;;;7.30;99.90;;;;;;5075232;28;20041;-76
2023/12/05 11:04:42;;;;;;;1999.90;999.90;;;7.20;99.90;;;;;;5075329;28;20040;-76
2023/12/05 11:07:09;;;;;;;1999.90;999.90;;;7.20;99.90;;;;;;5074830;28;20552;-76
2023/12/05 11:09:35;;;;;;;1999.90;999.90;;;7.30;99.90;;;;;;5075487;28;20163;-76
2023/12/05 11:12:06;;;;;;;1999.90;999.90;;;7.30;99.90;;;;;;5075255;28;20033;-76
2023/12/05 11:14:36;;;;;;;1999.90;999.90;;;7.40;99.90;;;;;;5075500;28;20035;-76
2023/12/05 11:17:05;;;;;;;1999.90;999.90;;;7.50;99.90;;;;;;5075262;28;20115;-76
2023/12/05 11:20:00;;;;;;;1999.90;999.90;;;7.60;99.90;;;;;;5075008;28;20108;-76
2023/12/05 11:22:32;;;;;;;1999.90;999.90;;;7.50;99.90;;;;;;5075328;28;20033;-76
2023/12/05 11:25:03;;;;;;;1999.90;999.90;;;7.70;99.90;;;;;;5075066;28;20482;-76
2023/12/05 11:27:37;;;;;;;1999.90;999.90;;;7.80;99.90;;;;;;5074649;28;20040;-76
2023/12/05 11:30:11;;;;;;;1999.90;999.90;;;7.90;99.90;;;;;;5075066;28;20033;-76
2023/12/05 11:33:04;;;;;;;1999.90;999.90;;;7.80;99.90;;;;;;5074762;28;20481;-76
2023/12/05 11:35:42;;;;;;;1999.90;999.90;;;7.90;99.90;;;;;;5074964;28;20064;-76
2023/12/05 11:38:10;;;;;;;1999.90;999.90;;;7.90;99.90;;;;;;5075082;28;20037;-76
2023/12/05 11:40:35;;;;;;;1999.90;999.90;;;8.00;99.90;;;;;;5074819;28;20029;-76
2023/12/05 11:43:08;;;;;;;1999.90;999.90;;;7.90;99.90;;;;;;5074888;28;20033;-75
2023/12/05 11:45:57;;;;;;;1999.90;999.90;;;7.90;99.90;;;;;;5074688;28;20032;-76
2023/12/05 11:48:26;;;;;;;1999.90;999.90;;;7.70;99.90;;;;;;5074935;28;20041;-77
2023/12/05 11:50:51;;;;;;;1999.90;999.90;;;7.90;99.90;;;;;;5075120;28;20029;-77
2023/12/05 11:53:20;;;;;;;1999.90;999.90;;;7.80;99.90;;;;;;5073394;28;20444;-76
2023/12/05 11:55:47;;;;;;;1999.90;999.90;;;7.90;99.90;;;;;;5073861;28;20025;-76
2023/12/05 11:58:28;;;;;;;1999.90;999.90;;;7.90;99.90;;;;;;5074416;28;20119;-76
2023/12/05 12:01:07;;;;;;;1999.90;999.90;;;8.10;99.90;;;;;;5074415;28;20508;-76
2023/12/05 12:03:52;;;;;;;1999.90;999.90;;;8.10;99.90;;;;;;5074489;28;20029;-76
2023/12/05 12:06:19;;;;;;;1999.90;999.90;;;8.30;99.90;;;;;;5073777;28;20507;-76